createdAt,value
2022-10-18T00:00:50.996Z,12.40
2022-10-18T00:03:18.997Z,12.40
2022-10-18T00:05:47.791Z,12.40
2022-10-18T00:08:16.652Z,12.50
2022-10-18T00:10:44.900Z,12.50
2022-10-18T00:13:15.024Z,12.50
2022-10-18T00:15:49.012Z,12.60
2022-10-18T00:18:17.040Z,12.60
2022-10-18T00:20:45.050Z,12.50
2022-10-18T00:23:13.009Z,12.40
2022-10-18T00:25:41.127Z,12.50
2022-10-18T00:28:09.020Z,12.50
2022-10-18T00:30:38.469Z,12.50
2022-10-18T00:33:06.435Z,12.50
2022-10-18T00:35:35.667Z,12.50
2022-10-18T00:38:03.661Z,12.50
2022-10-18T00:40:31.675Z,12.50
2022-10-18T00:42:59.645Z,12.40
2022-10-18T00:45:27.944Z,12.40
2022-10-18T00:47:59.721Z,12.40
2022-10-18T00:50:28.355Z,12.40
2022-10-18T00:52:58.682Z,12.30
2022-10-18T00:55:26.718Z,12.30
2022-10-18T01:00:27.937Z,12.20
2022-10-18T01:02:57.250Z,12.20
2022-10-18T01:05:25.297Z,12.20
2022-10-18T01:08:12.097Z,12.10
2022-10-18T01:10:43.200Z,12.10
2022-10-18T01:13:19.032Z,12.10
2022-10-18T01:15:51.703Z,12.00
2022-10-18T01:18:25.703Z,12.00
2022-10-18T01:21:03.626Z,11.90
2022-10-18T01:23:37.957Z,11.90
2022-10-18T01:26:15.872Z,11.90
2022-10-18T01:28:50.693Z,11.90
2022-10-18T01:31:21.918Z,11.80
2022-10-18T01:33:53.017Z,11.80
2022-10-18T01:36:22.712Z,11.70
2022-10-18T01:38:52.444Z,11.70
2022-10-18T01:41:21.288Z,11.60
2022-10-18T01:43:51.369Z,11.50
2022-10-18T01:46:22.547Z,11.50
2022-10-18T01:48:50.992Z,11.50
2022-10-18T01:51:19.935Z,11.50
2022-10-18T01:53:48.059Z,11.50
2022-10-18T01:56:21.870Z,11.50
2022-10-18T01:58:54.080Z,11.60
2022-10-18T02:01:27.012Z,11.60
2022-10-18T02:03:57.640Z,11.50
2022-10-18T02:06:28.303Z,11.50
2022-10-18T02:08:58.962Z,11.40
2022-10-18T02:11:28.033Z,11.30
2022-10-18T02:13:57.746Z,11.30
2022-10-18T02:16:29.373Z,11.10
2022-10-18T02:18:59.075Z,11.00
2022-10-18T02:21:28.577Z,10.90
2022-10-18T02:23:56.946Z,10.80
2022-10-18T02:26:25.156Z,10.70
2022-10-18T02:28:53.243Z,10.60
2022-10-18T02:31:22.700Z,10.50
2022-10-18T02:33:54.985Z,10.50
2022-10-18T02:36:25.115Z,10.40
2022-10-18T02:38:55.171Z,10.40
2022-10-18T02:41:24.137Z,10.30
2022-10-18T02:43:52.353Z,10.30
2022-10-18T02:46:20.800Z,10.20
2022-10-18T02:48:48.827Z,10.20
2022-10-18T02:51:18.356Z,10.10
2022-10-18T02:53:46.332Z,10.00
2022-10-18T02:56:14.469Z,10.00
2022-10-18T02:58:42.484Z,10.00
2022-10-18T03:01:10.649Z,10.00
2022-10-18T03:03:38.591Z,10.00
2022-10-18T03:06:06.811Z,9.90
2022-10-18T03:08:36.794Z,10.00
2022-10-18T03:11:04.800Z,10.00
2022-10-18T03:13:34.360Z,10.00
2022-10-18T03:16:02.530Z,9.90
2022-10-18T03:18:30.711Z,9.90
2022-10-18T03:20:58.598Z,9.80
2022-10-18T03:23:26.483Z,9.80
2022-10-18T03:25:55.759Z,9.80
2022-10-18T03:28:23.807Z,9.70
2022-10-18T03:30:53.171Z,9.80
2022-10-18T03:33:21.261Z,9.90
2022-10-18T03:35:49.352Z,10.00
2022-10-18T03:38:17.282Z,10.10
2022-10-18T03:40:45.214Z,10.10
2022-10-18T03:43:14.623Z,10.10
2022-10-18T03:45:42.560Z,10.10
2022-10-18T03:48:10.544Z,10.10
2022-10-18T03:50:38.786Z,10.00
2022-10-18T03:53:06.785Z,10.00
2022-10-18T03:55:34.782Z,9.90
2022-10-18T03:58:02.783Z,9.90
2022-10-18T04:00:32.200Z,9.80
2022-10-18T04:03:00.287Z,9.70
2022-10-18T04:05:30.729Z,9.70
2022-10-18T04:07:58.928Z,9.60
2022-10-18T04:10:27.195Z,9.60
2022-10-18T04:12:55.132Z,9.50
2022-10-18T04:15:23.230Z,9.60
2022-10-18T04:17:52.625Z,9.60
2022-10-18T04:20:20.839Z,9.50
2022-10-18T04:22:51.493Z,9.50
2022-10-18T04:25:19.527Z,9.50
2022-10-18T04:27:47.843Z,9.40
2022-10-18T04:30:15.942Z,9.40
2022-10-18T04:32:44.104Z,9.40
2022-10-18T04:35:13.818Z,9.30
2022-10-18T04:37:42.104Z,9.30
2022-10-18T04:40:10.726Z,9.30
2022-10-18T04:42:38.631Z,9.30
2022-10-18T04:45:07.179Z,9.20
2022-10-18T04:47:35.338Z,9.20
2022-10-18T04:50:03.415Z,9.20
2022-10-18T04:52:33.039Z,9.20
2022-10-18T04:55:01.054Z,9.20
2022-10-18T04:57:29.199Z,9.30
2022-10-18T04:59:57.918Z,9.30
2022-10-18T05:02:25.878Z,9.30
2022-10-18T05:04:54.027Z,9.30
2022-10-18T05:07:22.031Z,9.30
2022-10-18T05:09:51.581Z,9.30
2022-10-18T05:12:19.735Z,9.30
2022-10-18T05:14:47.661Z,9.30
2022-10-18T05:17:15.989Z,9.20
2022-10-18T05:19:43.938Z,9.20
2022-10-18T05:22:12.903Z,9.20
2022-10-18T05:24:40.908Z,9.20
2022-10-18T05:27:11.189Z,9.20
2022-10-18T05:29:39.167Z,9.20
2022-10-18T05:32:07.087Z,9.20
2022-10-18T05:34:35.108Z,9.30
2022-10-18T05:37:03.130Z,9.20
2022-10-18T05:39:31.031Z,9.20
2022-10-18T05:41:59.999Z,9.30
2022-10-18T05:44:33.977Z,9.40
2022-10-18T05:47:02.025Z,9.40
2022-10-18T05:49:30.179Z,9.50
2022-10-18T05:51:58.279Z,9.50
2022-10-18T05:54:26.302Z,9.60
2022-10-18T05:56:54.226Z,9.80
2022-10-18T05:59:22.258Z,9.90
2022-10-18T06:01:51.555Z,10.20
2022-10-18T06:04:19.467Z,10.30
2022-10-18T06:06:47.414Z,10.50
2022-10-18T06:09:15.485Z,10.80
2022-10-18T06:11:43.684Z,11.10
2022-10-18T06:14:11.645Z,11.30
2022-10-18T06:16:39.697Z,11.50
2022-10-18T06:19:09.245Z,11.50
2022-10-18T06:21:37.192Z,11.60
2022-10-18T06:24:05.429Z,11.70
2022-10-18T06:26:33.347Z,11.90
2022-10-18T06:29:01.427Z,12.00
2022-10-18T06:31:29.597Z,12.20
2022-10-18T06:33:58.492Z,12.40
2022-10-18T06:36:27.980Z,12.50
2022-10-18T06:38:56.651Z,12.70
2022-10-18T06:41:24.636Z,12.80
2022-10-18T06:43:54.147Z,12.90
2022-10-18T06:46:22.097Z,13.10
2022-10-18T06:48:50.091Z,13.20
2022-10-18T06:51:18.424Z,13.30
2022-10-18T06:53:59.655Z,13.40
2022-10-18T06:56:35.991Z,13.50
2022-10-18T06:59:03.998Z,13.70
2022-10-18T07:01:32.063Z,13.70
2022-10-18T07:04:00.091Z,13.70
2022-10-18T07:06:28.039Z,13.60
2022-10-18T07:08:57.576Z,13.60
2022-10-18T07:11:26.743Z,13.50
2022-10-18T07:13:55.390Z,13.50
2022-10-18T07:16:23.387Z,13.40
2022-10-18T07:18:52.564Z,13.30
2022-10-18T07:21:22.093Z,13.30
2022-10-18T07:23:50.817Z,13.30
2022-10-18T07:26:21.002Z,13.40
2022-10-18T07:28:49.920Z,13.80
2022-10-18T07:31:18.248Z,14.30
2022-10-18T07:33:46.128Z,15.10
2022-10-18T07:36:14.684Z,15.70
2022-10-18T07:38:42.780Z,16.20
2022-10-18T07:41:12.873Z,16.70
2022-10-18T07:43:46.158Z,17.10
2022-10-18T07:46:14.755Z,17.40
2022-10-18T07:48:42.818Z,17.40
2022-10-18T07:51:11.192Z,16.90
2022-10-18T07:53:39.334Z,16.30
2022-10-18T07:56:09.787Z,15.90
2022-10-18T07:58:37.805Z,15.70
2022-10-18T08:01:08.310Z,15.40
2022-10-18T08:03:36.889Z,15.20
2022-10-18T08:06:05.630Z,15.10
2022-10-18T08:08:33.590Z,15.00
2022-10-18T08:11:03.360Z,14.90
2022-10-18T08:13:31.519Z,14.90
2022-10-18T08:16:00.766Z,14.90
2022-10-18T08:18:30.379Z,14.90
2022-10-18T08:21:00.329Z,14.90
2022-10-18T08:23:28.392Z,14.90
2022-10-18T08:25:56.387Z,15.00
2022-10-18T08:28:24.376Z,15.00
2022-10-18T08:30:52.372Z,15.00
2022-10-18T08:33:20.329Z,15.00
2022-10-18T08:35:56.985Z,15.10
2022-10-18T08:38:25.181Z,15.30
2022-10-18T08:40:53.398Z,15.40
2022-10-18T08:43:25.270Z,15.60
2022-10-18T08:45:54.971Z,15.60
2022-10-18T08:48:26.285Z,15.70
2022-10-18T08:50:55.902Z,15.70
2022-10-18T08:53:28.865Z,15.70
2022-10-18T08:56:02.218Z,15.70
2022-10-18T08:58:31.846Z,15.60
2022-10-18T09:01:03.754Z,15.50
2022-10-18T09:03:38.583Z,15.40
2022-10-18T09:06:13.241Z,15.30
2022-10-18T09:09:02.458Z,15.20
2022-10-18T09:11:39.965Z,15.10
2022-10-18T09:14:20.451Z,15.00
2022-10-18T09:16:51.861Z,14.90
2022-10-18T09:19:24.713Z,14.90
2022-10-18T09:21:53.811Z,14.80
2022-10-18T09:24:28.330Z,14.90
2022-10-18T09:26:58.768Z,15.00
2022-10-18T09:29:34.048Z,15.10
2022-10-18T09:32:05.743Z,15.20
2022-10-18T09:34:38.500Z,15.40
2022-10-18T09:37:10.824Z,15.60
2022-10-18T09:39:40.577Z,15.80
2022-10-18T09:42:12.597Z,16.00
2022-10-18T09:44:43.019Z,16.10
2022-10-18T09:47:16.952Z,16.20
2022-10-18T09:49:47.210Z,16.30
2022-10-18T09:52:18.377Z,16.40
2022-10-18T09:54:50.945Z,16.60
2022-10-18T09:57:20.595Z,16.70
2022-10-18T09:59:49.540Z,16.70
2022-10-18T10:02:18.175Z,16.60
2022-10-18T10:04:46.485Z,16.60
2022-10-18T10:07:18.167Z,16.60
2022-10-18T10:09:48.289Z,16.60
2022-10-18T10:12:26.488Z,16.60
2022-10-18T10:14:54.675Z,16.60
2022-10-18T10:17:24.223Z,16.60
2022-10-18T10:19:58.354Z,16.70
2022-10-18T10:22:28.254Z,16.70
2022-10-18T10:24:57.948Z,16.70
2022-10-18T10:27:30.394Z,16.70
2022-10-18T10:30:02.801Z,16.70
2022-10-18T10:32:45.306Z,16.70
2022-10-18T10:35:34.033Z,16.60
2022-10-18T10:38:23.582Z,16.60
2022-10-18T10:40:53.168Z,16.60
2022-10-18T10:43:40.066Z,16.70
2022-10-18T10:46:09.683Z,17.00
2022-10-18T10:48:42.196Z,17.30
2022-10-18T10:51:11.128Z,17.60
2022-10-18T10:53:40.958Z,17.80
2022-10-18T10:56:16.822Z,18.00
2022-10-18T10:58:44.819Z,18.10
2022-10-18T11:01:26.873Z,18.30
2022-10-18T11:03:56.132Z,18.30
2022-10-18T11:06:32.940Z,18.40
2022-10-18T11:09:02.849Z,18.50
2022-10-18T11:11:34.675Z,18.60
2022-10-18T11:14:24.732Z,18.50
2022-10-18T11:16:58.095Z,18.30
2022-10-18T11:19:33.685Z,18.20
2022-10-18T11:22:03.920Z,18.10
2022-10-18T11:24:31.874Z,18.20
2022-10-18T11:27:03.235Z,18.10
2022-10-18T11:29:35.095Z,18.00
2022-10-18T11:32:08.019Z,17.90
2022-10-18T11:34:46.457Z,17.80
2022-10-18T11:37:29.179Z,17.70
2022-10-18T11:40:04.824Z,17.40
2022-10-18T11:42:39.844Z,17.10
2022-10-18T11:45:14.960Z,17.00
2022-10-18T11:47:53.543Z,16.80
2022-10-18T11:50:27.435Z,16.70
2022-10-18T11:53:01.369Z,16.60
2022-10-18T11:55:37.422Z,16.10
2022-10-18T11:58:12.223Z,15.40
2022-10-18T12:00:44.962Z,14.90
2022-10-18T12:03:26.309Z,14.50
2022-10-18T12:05:55.244Z,14.30
2022-10-18T12:08:26.252Z,14.20
2022-10-18T12:11:05.425Z,14.10
2022-10-18T12:13:37.935Z,14.10
2022-10-18T12:16:08.238Z,14.10
2022-10-18T12:18:38.024Z,14.10
2022-10-18T12:21:06.551Z,14.10
2022-10-18T12:23:38.727Z,14.10
2022-10-18T12:26:07.811Z,14.10
2022-10-18T12:28:44.144Z,14.10
2022-10-18T12:31:15.284Z,14.10
2022-10-18T12:33:45.424Z,14.10
2022-10-18T12:36:20.205Z,14.10
2022-10-18T12:38:49.685Z,14.10
2022-10-18T12:41:20.593Z,14.10
2022-10-18T12:43:54.251Z,14.00
2022-10-18T12:46:22.359Z,14.00
2022-10-18T12:49:00.934Z,14.00
2022-10-18T12:51:29.107Z,14.00
2022-10-18T12:54:09.813Z,14.00
2022-10-18T12:56:41.790Z,14.00
2022-10-18T12:59:28.134Z,14.00
2022-10-18T13:02:20.637Z,14.00
2022-10-18T13:04:48.754Z,14.00
2022-10-18T13:07:21.682Z,14.10
2022-10-18T13:10:08.077Z,14.10
2022-10-18T13:12:50.877Z,14.10
2022-10-18T13:15:32.240Z,14.10
2022-10-18T13:18:07.328Z,14.00
2022-10-18T13:20:39.708Z,13.90
2022-10-18T13:23:17.218Z,13.90
2022-10-18T13:25:53.198Z,13.90
2022-10-18T13:28:25.621Z,13.90
2022-10-18T13:30:56.427Z,13.90
2022-10-18T13:33:31.214Z,13.90
2022-10-18T13:36:00.243Z,13.90
2022-10-18T13:38:33.915Z,14.00
2022-10-18T13:41:02.777Z,14.00
2022-10-18T13:43:52.393Z,14.10
2022-10-18T13:46:20.844Z,14.00
2022-10-18T13:48:51.399Z,14.00
2022-10-18T13:51:38.090Z,14.00
2022-10-18T13:54:12.386Z,13.90
2022-10-18T13:56:54.132Z,13.90
2022-10-18T13:59:27.891Z,13.90
2022-10-18T14:02:05.528Z,13.90
2022-10-18T14:04:46.777Z,14.00
2022-10-18T14:07:19.150Z,14.00
2022-10-18T14:09:51.079Z,14.00
2022-10-18T14:12:26.199Z,14.10
2022-10-18T14:14:57.473Z,14.00
2022-10-18T14:17:29.365Z,14.00
2022-10-18T14:20:01.377Z,13.90
2022-10-18T14:22:32.239Z,14.00
2022-10-18T14:25:00.409Z,13.90
2022-10-18T14:27:29.024Z,13.90
2022-10-18T14:30:13.491Z,13.80
2022-10-18T14:32:45.057Z,13.70
2022-10-18T14:35:32.050Z,13.70
2022-10-18T14:38:01.128Z,13.60
2022-10-18T14:40:30.388Z,13.60
2022-10-18T14:43:02.331Z,13.60
2022-10-18T14:45:30.608Z,13.50
2022-10-18T14:48:06.441Z,13.50
2022-10-18T14:50:35.947Z,13.50
2022-10-18T14:53:07.663Z,13.50
2022-10-18T14:55:36.147Z,13.50
2022-10-18T14:58:04.111Z,13.50
2022-10-18T15:00:36.054Z,13.60
2022-10-18T15:03:07.798Z,13.60
2022-10-18T15:05:39.501Z,13.60
2022-10-18T15:08:08.175Z,13.60
2022-10-18T15:10:36.341Z,13.60
2022-10-18T15:13:10.307Z,13.70
2022-10-18T15:15:39.263Z,13.70
2022-10-18T15:18:07.832Z,13.70
2022-10-18T15:20:42.507Z,13.60
2022-10-18T15:23:21.884Z,13.60
2022-10-18T15:25:50.427Z,13.50
2022-10-18T15:28:30.217Z,13.40
2022-10-18T15:30:59.000Z,13.40
2022-10-18T15:33:27.507Z,13.40
2022-10-18T15:35:56.959Z,13.40
2022-10-18T15:38:26.979Z,13.40
2022-10-18T15:40:55.238Z,13.40
2022-10-18T15:43:44.190Z,13.40
2022-10-18T15:46:29.884Z,13.40
2022-10-18T15:48:59.338Z,13.40
2022-10-18T15:51:47.874Z,13.30
2022-10-18T15:54:18.854Z,13.30
2022-10-18T15:56:49.907Z,13.20
2022-10-18T15:59:25.310Z,13.20
2022-10-18T16:01:53.570Z,13.10
2022-10-18T16:04:24.358Z,13.00
2022-10-18T16:06:55.439Z,13.00
2022-10-18T16:09:24.267Z,12.90
2022-10-18T16:11:56.628Z,12.90
2022-10-18T16:14:25.590Z,12.90
2022-10-18T16:16:55.575Z,12.80
2022-10-18T16:19:24.106Z,12.80
2022-10-18T16:21:54.840Z,12.80
2022-10-18T16:24:23.209Z,12.80
2022-10-18T16:26:51.427Z,12.80
2022-10-18T16:29:21.877Z,12.70
2022-10-18T16:31:53.784Z,12.70
2022-10-18T16:34:21.784Z,12.70
2022-10-18T16:36:49.735Z,12.70
2022-10-18T16:39:19.663Z,12.70
2022-10-18T16:41:48.161Z,12.70
2022-10-18T16:44:16.550Z,12.70
2022-10-18T16:46:44.623Z,12.70
2022-10-18T16:49:21.372Z,12.70
2022-10-18T16:51:49.432Z,12.70
2022-10-18T16:54:17.379Z,12.60
2022-10-18T16:56:47.740Z,12.60
2022-10-18T16:59:21.732Z,12.60
2022-10-18T17:01:49.952Z,12.60
2022-10-18T17:04:20.963Z,12.60
2022-10-18T17:06:49.520Z,12.60
2022-10-18T17:09:17.456Z,12.50
2022-10-18T17:11:46.916Z,12.60
2022-10-18T17:14:15.295Z,12.50
2022-10-18T17:16:45.421Z,12.40
2022-10-18T17:19:16.384Z,12.40
2022-10-18T17:21:44.346Z,12.30
2022-10-18T17:24:12.329Z,12.20
2022-10-18T17:26:40.280Z,12.10
2022-10-18T17:29:10.023Z,12.00
2022-10-18T17:31:37.957Z,11.80
2022-10-18T17:34:06.139Z,11.70
2022-10-18T17:36:34.792Z,11.70
2022-10-18T17:39:02.855Z,11.70
2022-10-18T17:41:31.043Z,11.80
2022-10-18T17:43:59.008Z,11.90
2022-10-18T17:46:28.381Z,11.90
2022-10-18T17:48:56.388Z,12.00
2022-10-18T17:51:27.589Z,12.00
2022-10-18T17:53:55.539Z,12.00
2022-10-18T17:56:23.585Z,12.00
2022-10-18T17:58:52.224Z,11.90
2022-10-18T18:01:21.187Z,11.80
2022-10-18T18:03:51.046Z,11.70
2022-10-18T18:06:20.495Z,11.60
2022-10-18T18:08:49.342Z,11.60
2022-10-18T18:11:17.719Z,11.60
2022-10-18T18:13:46.325Z,11.50
2022-10-18T18:16:24.883Z,11.50
2022-10-18T18:18:58.087Z,11.50
2022-10-18T18:21:26.563Z,11.40
2022-10-18T18:23:54.988Z,11.30
2022-10-18T18:26:23.286Z,11.20
2022-10-18T18:28:51.430Z,11.20
2022-10-18T18:31:20.519Z,11.20
2022-10-18T18:33:49.563Z,11.20
2022-10-18T18:36:19.853Z,11.20
2022-10-18T18:38:48.002Z,11.30
2022-10-18T18:41:16.852Z,11.30
2022-10-18T18:43:49.084Z,11.40
2022-10-18T18:46:17.059Z,11.50
2022-10-18T18:48:44.974Z,11.40
2022-10-18T18:51:14.299Z,11.30
2022-10-18T18:53:43.949Z,11.30
2022-10-18T18:58:55.593Z,11.30
2022-10-18T19:01:24.774Z,11.40
2022-10-18T19:03:53.730Z,11.40
2022-10-18T19:06:22.635Z,11.50
2022-10-18T19:08:54.260Z,11.50
2022-10-18T19:11:26.203Z,11.50
2022-10-18T19:13:54.205Z,11.50
2022-10-18T19:16:29.661Z,11.50
2022-10-18T19:18:58.961Z,11.50
2022-10-18T19:21:27.640Z,11.50
2022-10-18T19:23:57.353Z,11.50
2022-10-18T19:26:33.178Z,11.60
2022-10-18T19:29:01.670Z,11.70
2022-10-18T19:31:29.803Z,11.70
2022-10-18T19:34:00.603Z,11.80
2022-10-18T19:36:29.275Z,11.70
2022-10-18T19:38:59.060Z,11.80
2022-10-18T19:41:28.820Z,11.70
2022-10-18T19:43:59.891Z,11.80
2022-10-18T19:46:27.836Z,11.80
2022-10-18T19:48:55.783Z,11.80
2022-10-18T19:51:27.089Z,11.80
2022-10-18T19:53:56.596Z,11.80
2022-10-18T19:56:26.697Z,11.90
2022-10-18T19:58:57.597Z,11.90
2022-10-18T20:01:26.147Z,11.90
2022-10-18T20:03:54.350Z,11.90
2022-10-18T20:06:22.773Z,11.90
2022-10-18T20:08:51.421Z,11.90
2022-10-18T20:11:21.020Z,11.90
2022-10-18T20:13:50.501Z,11.90
2022-10-18T20:16:22.081Z,11.90
2022-10-18T20:18:55.504Z,11.80
2022-10-18T20:21:23.572Z,11.70
2022-10-18T20:23:51.570Z,11.70
2022-10-18T20:26:20.786Z,11.70
2022-10-18T20:28:56.172Z,11.60
2022-10-18T20:31:25.770Z,11.60
2022-10-18T20:34:00.340Z,11.50
2022-10-18T20:36:28.812Z,11.40
2022-10-18T20:38:56.984Z,11.40
2022-10-18T20:41:31.671Z,11.30
2022-10-18T20:44:02.266Z,11.20
2022-10-18T20:46:31.028Z,11.20
2022-10-18T20:48:59.055Z,11.20
2022-10-18T20:51:27.035Z,11.30
2022-10-18T20:53:55.251Z,11.30
2022-10-18T20:56:24.183Z,11.40
2022-10-18T20:58:52.717Z,11.30
2022-10-18T21:01:23.530Z,11.40
2022-10-18T21:03:52.418Z,11.50
2022-10-18T21:06:21.897Z,11.50
2022-10-18T21:08:53.466Z,11.60
2022-10-18T21:11:21.642Z,11.60
2022-10-18T21:13:51.364Z,11.60
2022-10-18T21:16:19.419Z,11.60
2022-10-18T21:18:49.235Z,11.60
2022-10-18T21:21:18.253Z,11.60
2022-10-18T21:23:46.660Z,11.60
2022-10-18T21:26:15.562Z,11.60
2022-10-18T21:28:43.761Z,11.60
2022-10-18T21:31:13.802Z,11.60
2022-10-18T21:33:42.375Z,11.60
2022-10-18T21:36:12.100Z,11.60
2022-10-18T21:38:40.210Z,11.50
2022-10-18T21:41:09.227Z,11.50
2022-10-18T21:43:37.341Z,11.40
2022-10-18T21:46:05.398Z,11.40
2022-10-18T21:48:33.546Z,11.30
2022-10-18T21:51:03.326Z,11.20
2022-10-18T21:53:33.102Z,11.10
2022-10-18T21:56:05.553Z,11.10
2022-10-18T21:58:33.631Z,11.10
2022-10-18T22:01:01.616Z,11.00
2022-10-18T22:03:29.644Z,11.00
2022-10-18T22:05:58.382Z,11.00
2022-10-18T22:08:26.393Z,11.00
2022-10-18T22:10:58.368Z,11.10
2022-10-18T22:13:26.579Z,11.10
2022-10-18T22:15:54.761Z,11.20
2022-10-18T22:18:22.800Z,11.20
2022-10-18T22:20:57.095Z,11.30
2022-10-18T22:23:25.459Z,11.30
2022-10-18T22:25:53.381Z,11.30
2022-10-18T22:28:22.963Z,11.40
2022-10-18T22:30:50.949Z,11.40
2022-10-18T22:33:18.957Z,11.40
2022-10-18T22:35:49.712Z,11.50
2022-10-18T22:38:18.495Z,11.40
2022-10-18T22:40:46.483Z,11.40
2022-10-18T22:43:14.449Z,11.40
2022-10-18T22:45:44.072Z,11.30
2022-10-18T22:48:11.988Z,11.40
2022-10-18T22:50:39.929Z,11.40
2022-10-18T22:53:07.898Z,11.40
2022-10-18T22:55:35.943Z,11.30
2022-10-18T22:58:03.980Z,11.30
2022-10-18T23:00:32.220Z,11.30
2022-10-18T23:03:01.893Z,11.20
2022-10-18T23:05:29.922Z,11.10
2022-10-18T23:07:57.812Z,11.00
2022-10-18T23:10:25.748Z,10.90
2022-10-18T23:12:53.724Z,10.80
2022-10-18T23:15:21.911Z,10.60
2022-10-18T23:17:50.100Z,10.50
2022-10-18T23:20:19.611Z,10.40
2022-10-18T23:22:47.599Z,10.40
2022-10-18T23:25:15.965Z,10.30
2022-10-18T23:30:12.375Z,10.20
2022-10-18T23:32:40.371Z,10.30
2022-10-18T23:35:08.555Z,10.20
2022-10-18T23:37:38.488Z,10.10
2022-10-18T23:40:07.305Z,9.90
2022-10-18T23:42:35.326Z,9.80
2022-10-18T23:45:03.288Z,9.80
2022-10-18T23:47:31.548Z,9.70
2022-10-18T23:49:59.806Z,9.70
2022-10-18T23:52:28.044Z,9.50
2022-10-18T23:54:57.482Z,9.40
2022-10-18T23:57:25.382Z,9.30
2022-10-18T23:59:53.394Z,9.30
